• Join FlightAware (Why Join?)
  • Login
  • US Flag 
10:52PM EDT


 

Airport Tracker/Info


-or-


 

Live Flight TrackerFlight Track Log ✈ UAL4696 ✈ 02-May-2013 ✈ CYYZ - KIAH

Flight Track Log - Related Links

Times and Time Zones

All times are in EDT time to prevent confusion due to time zone crossing. See the UAL4696 flight status page for this flight to view local times or setup timezone preferences in your user account.

Time Position Orientation Groundspeed Altitude Reporting Facility
EDT Latitude Longitude Course Direction KTS MPH feet Rate Location/Type
07:46AM 43.6333 -79.7000 231° Southwest 180 207 2,800  Level Toronto Center
07:47AM 43.6167 -79.7667 251° West 230 265 4,300 1,920 Climbing Toronto Center
07:48AM 43.5667 -79.8333 224° Southwest 270 311 6,700 2,400 Climbing Toronto Center
07:49AM 43.5167 -79.9167 230° Southwest 280 322 9,200 1,800 Climbing Toronto Center
07:50AM 43.4500 -80.0000 222° Southwest 300 345 10,400 1,260 Climbing Toronto Center
07:51AM 43.0547 -80.2522 231° Southwest  Level FlightAware Approximate
07:51AM 43.3667 -80.1000 221° Southwest 340 391 11,800  Level Toronto Center
07:52AM 43.3000 -80.1667 216° Southwest 360 414 13,300 1,500 Climbing Toronto Center
07:53AM 43.2167 -80.2667 221° Southwest 370 426 14,900 1,500 Climbing Toronto Center
07:54AM 43.1333 -80.3667 221° Southwest 380 437 16,300 1,620 Climbing Toronto Center
07:55AM 43.0500 -80.4500 216° Southwest 380 437 18,200 2,400 Climbing Toronto Center
07:56AM 42.9833 -80.5500 228° Southwest 350 403 21,200 2,280 Climbing Toronto Center
07:57AM 42.9167 -80.6167 216° Southwest 310 357 22,800 1,320 Climbing Toronto Center
07:58AM 42.8500 -80.7000 223° Southwest 330 380 23,900 1,020 Climbing Toronto Center
07:58AM 42.8247 -80.7558 238° Southwest 341 392 24,300 900 Climbing Cleveland Center
07:59AM 42.7581 -80.8292 219° Southwest 347 399 25,200 900 Climbing Cleveland Center
08:00AM 42.6764 -80.9164 218° Southwest 365 420 26,200 960 Climbing Cleveland Center
08:01AM 42.5950 -81.0006 217° Southwest 372 428 27,200 1,020 Climbing Cleveland Center
08:02AM 42.5111 -81.0789 215° Southwest 379 436 28,300 1,200 Climbing Cleveland Center
08:03AM 42.4253 -81.1597 215° Southwest 379 436 29,600 1,200 Climbing Cleveland Center
08:04AM 42.3417 -81.2406 216° Southwest 379 436 30,800 1,080 Climbing Cleveland Center
08:05AM 42.2514 -81.3264 215° Southwest 379 436 31,800 960 Climbing Cleveland Center
08:06AM 42.1697 -81.4067 216° Southwest 374 430 32,800 960 Climbing Cleveland Center
08:07AM 42.0856 -81.4869 215° Southwest 374 430 33,800 960 Climbing Cleveland Center
08:08AM 41.9994 -81.5639 214° Southwest 374 430 34,800 900 Climbing Cleveland Center
08:09AM 41.9361 -81.6606 229° Southwest 363 418 35,700 600 Climbing Cleveland Center
08:10AM 41.8725 -81.7683 232° Southwest 361 415 36,000 120 Climbing Cleveland Center
08:11AM 41.8089 -81.8758 232° Southwest 375 432 36,000  Level Cleveland Center
08:12AM 41.7386 -81.9911 231° Southwest 392 451 36,000  Level Cleveland Center
08:13AM 41.6683 -82.1119 232° Southwest 408 470 36,000  Level Cleveland Center
08:14AM 41.5958 -82.2297 231° Southwest 414 476 36,000  Level Cleveland Center
08:15AM 41.5189 -82.3553 231° Southwest 420 483 36,000  Level Cleveland Center
08:16AM 41.4419 -82.4806 231° Southwest 431 496 36,000  Level Cleveland Center
08:17AM 41.3667 -82.6056 231° Southwest 436 502 36,000  Level Cleveland Center
08:18AM 41.2872 -82.7303 230° Southwest 441 507 36,000  Level Cleveland Center
08:20AM 41.1333 -82.9814 231° Southwest 434 499 36,000  Level Indianapolis Center
08:21AM 41.0558 -83.1056 230° Southwest 435 501 36,000  Level Indianapolis Center
08:22AM 40.9672 -83.2489 231° Southwest 429 494 36,000  Level Indianapolis Center
08:23AM 40.8903 -83.3703 230° Southwest 427 491 36,000  Level Indianapolis Center
08:24AM 40.8153 -83.4914 231° Southwest 425 489 36,000  Level Indianapolis Center
08:25AM 40.7461 -83.6011 230° Southwest 433 498 36,000  Level Indianapolis Center
08:26AM 40.6569 -83.7419 230° Southwest 426 490 36,000  Level Indianapolis Center
08:27AM 40.5794 -83.8617 230° Southwest 428 493 36,000  Level Indianapolis Center
08:28AM 40.5031 -83.9831 230° Southwest 429 494 36,000  Level Indianapolis Center
08:29AM 40.4258 -84.1036 230° Southwest 429 494 36,000  Level Indianapolis Center
08:31AM 40.3483 -84.2247 230° Southwest 430 495 36,000  Level Indianapolis Center
08:32AM 40.2703 -84.3444 230° Southwest 430 495 36,000  Level Indianapolis Center
08:33AM 40.1914 -84.4650 229° Southwest 432 497 36,000  Level Indianapolis Center
08:34AM 40.1114 -84.5861 229° Southwest 435 501 36,000  Level Indianapolis Center
08:35AM 40.0333 -84.7064 230° Southwest 434 499 36,000  Level Indianapolis Center
08:36AM 39.9417 -84.8467 230° Southwest 432 497 36,000  Level Indianapolis Center
08:37AM 39.8744 -84.9492 230° Southwest 430 495 36,000  Level Indianapolis Center
08:38AM 39.7811 -85.0911 229° Southwest 429 494 36,000  Level Indianapolis Center
08:39AM 39.7019 -85.2092 229° Southwest 431 496 36,000  Level Indianapolis Center
08:40AM 39.6233 -85.3275 229° Southwest 433 498 36,000  Level Indianapolis Center
08:41AM 39.5433 -85.4467 229° Southwest 436 502 36,000  Level Indianapolis Center
08:42AM 39.4639 -85.5642 229° Southwest 434 499 36,000  Level Indianapolis Center
08:43AM 39.3836 -85.6819 229° Southwest 435 501 36,000  Level Indianapolis Center
08:44AM 39.3036 -85.7997 229° Southwest 434 499 36,000  Level Indianapolis Center
08:45AM 39.2233 -85.9192 229° Southwest 437 503 36,000  Level Indianapolis Center
08:46AM 39.1431 -86.0378 229° Southwest 438 504 36,000  Level Indianapolis Center
08:47AM 39.0464 -86.1789 229° Southwest 436 502 36,000  Level Indianapolis Center
08:48AM 38.9658 -86.2944 228° Southwest 434 499 36,000  Level Indianapolis Center
08:49AM 38.8850 -86.4131 229° Southwest 439 505 36,000  Level Indianapolis Center
08:50AM 38.7994 -86.5333 228° Southwest 438 504 36,000  Level Indianapolis Center
08:51AM 38.7178 -86.6506 228° Southwest 440 506 36,000  Level Indianapolis Center
08:52AM 38.6364 -86.7675 228° Southwest 439 505 36,000  Level Indianapolis Center
08:53AM 38.5544 -86.8833 228° Southwest 439 505 36,000  Level Indianapolis Center
08:54AM 38.4733 -86.9997 228° Southwest 440 506 36,000  Level Indianapolis Center
08:55AM 38.3789 -87.1328 228° Southwest 440 506 36,000  Level Indianapolis Center
08:56AM 38.2961 -87.2494 228° Southwest 443 510 36,000  Level Indianapolis Center
08:57AM 38.2131 -87.3664 228° Southwest 446 513 36,000  Level Indianapolis Center
08:58AM 38.1300 -87.4817 228° Southwest 444 511 36,000  Level Indianapolis Center
08:59AM 38.0461 -87.5978 227° Southwest 444 511 36,000  Level Indianapolis Center
09:00AM 37.9617 -87.7150 228° Southwest 446 513 36,000  Level Indianapolis Center
09:01AM 37.8581 -87.7961 212° Southwest 442 509 36,000  Level Indianapolis Center
09:02AM 37.7347 -87.8542 200° South 445 512 36,000  Level Indianapolis Center
09:03AM 37.5981 -87.9194 201° Southwest 446 513 36,000  Level Indianapolis Center
09:04AM 37.5503 -87.9558 211° Southwest 451 519 36,000  Level Memphis Center
09:05AM 37.4369 -88.0192 204° Southwest 451 519 36,000  Level Memphis Center
09:06AM 37.3386 -88.1186 219° Southwest 446 513 36,000  Level Memphis Center
09:07AM 37.2383 -88.2100 216° Southwest 452 520 36,000  Level Memphis Center
09:08AM 37.1400 -88.3064 218° Southwest 452 520 36,000  Level Memphis Center
09:09AM 37.0414 -88.4025 218° Southwest 457 526 36,000  Level Memphis Center
09:10AM 36.9408 -88.4983 217° Southwest 457 526 36,000  Level Memphis Center
09:11AM 36.8422 -88.5914 217° Southwest 457 526 36,000  Level Memphis Center
09:12AM 36.7414 -88.6844 216° Southwest 457 526 36,000  Level Memphis Center
09:13AM 36.6447 -88.7769 218° Southwest 457 526 36,000 -120 Level Memphis Center
09:14AM 36.5458 -88.8692 217° Southwest 457 526 35,800 -600 Descending Memphis Center
09:15AM 36.4489 -88.9586 217° Southwest 452 520 34,900 -840 Descending Memphis Center
09:16AM 36.3497 -89.0481 216° Southwest 452 520 34,200 -480 Descending Memphis Center
09:17AM 36.2547 -89.1369 217° Southwest 452 520 34,000 -120 Descending Memphis Center
09:18AM 36.1681 -89.2181 217° Southwest 447 514 34,000  Level Memphis Center
09:19AM 36.0708 -89.3119 218° Southwest 447 514 34,000  Level Memphis Center
09:20AM 35.9714 -89.4028 216° Southwest 447 514 34,000  Level Memphis Center
09:21AM 35.8719 -89.4961 217° Southwest 453 521 34,000  Level Memphis Center
09:22AM 35.7706 -89.5919 217° Southwest 459 528 34,000  Level Memphis Center
09:23AM 35.6667 -89.6925 218° Southwest 459 528 34,000  Level Memphis Center
09:24AM 35.5672 -89.7803 216° Southwest 436 502 34,000  Level Memphis Center
09:25AM 35.4675 -89.8728 217° Southwest 449 517 34,000  Level Memphis Center
09:26AM 35.3717 -89.9625 217° Southwest 443 510 34,000  Level Memphis Center
09:27AM 35.2739 -90.0544 218° Southwest 443 510 34,000  Level Memphis Center
09:28AM 35.1742 -90.1436 216° Southwest 443 510 34,000  Level Memphis Center
09:29AM 35.0761 -90.2328 217° Southwest 443 510 34,000  Level Memphis Center
09:30AM 34.9761 -90.3217 216° Southwest 443 510 34,000  Level Memphis Center
09:31AM 34.8781 -90.4078 216° Southwest 443 510 34,000  Level Memphis Center
09:32AM 34.7819 -90.4936 216° Southwest 443 510 34,000  Level Memphis Center
09:33AM 34.6797 -90.5794 215° Southwest 443 510 34,000  Level Memphis Center
09:34AM 34.5772 -90.6597 213° Southwest 443 510 34,000  Level Memphis Center
09:35AM 34.4789 -90.7375 213° Southwest 438 504 34,000  Level Memphis Center
09:36AM 34.3786 -90.8228 215° Southwest 438 504 34,000  Level Memphis Center
09:37AM 34.2864 -90.8900 211° Southwest 438 504 34,000  Level Memphis Center
09:38AM 34.1881 -90.9697 214° Southwest 438 504 34,000  Level Memphis Center
09:39AM 34.0853 -91.0494 213° Southwest 437 503 34,000  Level Memphis Center
09:40AM 33.9867 -91.1289 214° Southwest 437 503 34,000  Level Memphis Center
09:41AM 33.8861 -91.2106 214° Southwest 437 503 34,000  Level Memphis Center
09:42AM 33.7831 -91.2894 212° Southwest 437 503 34,000  Level Memphis Center
09:43AM 33.6803 -91.3708 213° Southwest 437 503 34,000  Level Memphis Center
09:44AM 33.5794 -91.4494 213° Southwest 437 503 34,000  Level Memphis Center
09:46AM 33.3475 -91.6347 214° Southwest 436 502 34,000  Level Fort Worth Center
09:47AM 33.2406 -91.7139 212° Southwest 441 507 34,000  Level Fort Worth Center
09:48AM 33.1400 -91.7947 214° Southwest 446 513 34,000  Level Fort Worth Center
09:49AM 33.0328 -91.8733 212° Southwest 446 513 34,000 -300 Level Fort Worth Center
09:50AM 32.9319 -91.9514 213° Southwest 446 513 33,500 -780 Descending Fort Worth Center
09:51AM 32.8228 -92.0344 213° Southwest 451 519 32,500 -780 Descending Fort Worth Center
09:52AM 32.7156 -92.1150 212° Southwest 451 519 32,000 -300 Descending Fort Worth Center
09:53AM 32.5983 -92.2058 213° Southwest 463 533 32,000  Level Fort Worth Center
09:56AM 32.3478 -92.3897 212° Southwest 453 521 32,000  Level Houston Center
09:57AM 32.2419 -92.4708 213° Southwest 453 521 32,000  Level Houston Center
09:58AM 32.1147 -92.5681 213° Southwest 454 522 32,000  Level Houston Center
09:59AM 32.0064 -92.6486 212° Southwest 458 527 32,000  Level Houston Center
10:00AM 31.9061 -92.7378 217° Southwest 455 524 32,000  Level Houston Center
10:01AM 31.8103 -92.8325 220° Southwest 451 519 32,000  Level Houston Center
10:02AM 31.7156 -92.9275 220° Southwest 450 518 32,000  Level Houston Center
10:03AM 31.6183 -93.0203 219° Southwest 451 519 32,000  Level Houston Center
10:04AM 31.5014 -93.1339 220° Southwest 455 524 32,000  Level Houston Center
10:05AM 31.4036 -93.2269 219° Southwest 454 522 32,000  Level Houston Center
10:06AM 31.3092 -93.3164 219° Southwest 454 522 32,000  Level Houston Center
10:07AM 31.2094 -93.4111 219° Southwest 448 516 32,000  Level Houston Center
10:08AM 31.1144 -93.5019 219° Southwest 445 512 32,000  Level Houston Center
10:09AM 31.0003 -93.5597 203° Southwest 455 524 32,000 -720 Level Houston Center
10:10AM 30.8436 -93.5614 181° South 470 541 30,600 -1,740 Descending Houston Center
10:11AM 30.7253 -93.6031 197° South 452 520 28,500 -2,160 Descending Houston Center
10:12AM 30.6458 -93.7069 228° Southwest 437 503 26,200 -2,460 Descending Houston Center
10:13AM 30.5736 -93.8131 232° Southwest 428 493 23,500 -2,520 Descending Houston Center
10:14AM 30.5047 -93.9144 232° Southwest 411 473 21,000 -2,400 Descending Houston Center
10:15AM 30.4258 -94.0314 232° Southwest 393 452 18,600 -2,220 Descending Houston Center
10:16AM 30.3608 -94.1264 232° Southwest 382 440 16,500 -2,160 Descending Houston Center
10:17AM 30.2981 -94.2172 231° Southwest 370 426 14,200 -2,100 Descending Houston Center
10:18AM 30.2372 -94.3039 231° Southwest 351 404 12,200 -1,140 Descending Houston Center
10:19AM 30.1936 -94.3967 241° Southwest 336 387 11,900 -720 Descending Houston Center
10:20AM 30.1739 -94.5058 258° West 322 371 10,800 -960 Descending Houston Center
10:21AM 30.1561 -94.6058 258° West 319 367 10,000 -540 Descending Houston Center
10:22AM 30.1392 -94.7053 259° West 318 366 9,700 -900 Descending Houston Center
10:23AM 30.1228 -94.8047 259° West 318 366 8,200 -1,620 Descending Houston Center
10:25AM 30.1042 -94.9211 260° West 310 357 6,400 -1,140 Descending Houston Center
10:26AM 30.1067 -95.0083 272° West 279 321 5,900 -240 Descending Houston Center
10:27AM 30.1078 -95.0939 271° West 269 310 6,000  Climbing Houston Center
10:28AM 30.1064 -95.1817 269° West 273 314 5,900  Descending Houston Center
10:29AM 30.1058 -95.2658 270° West 221 254 6,100  Climbing Houston Center
10:30AM 30.1069 -95.3294 271° West 224 258 6,000 -120 Descending Houston Center
10:31AM 30.1069 -95.4153 270° West 224 258 5,900 -600 Descending Houston Center
10:32AM 30.1069 -95.4853 270° West 221 254 4,900 -1,200 Descending Houston Center
10:33AM 30.1072 -95.5564 270° West 220 253 3,500 -900 Descending Houston Center
10:34AM 30.1056 -95.6353 269° West 220 253 3,000 -240 Descending Houston Center
10:35AM 30.1017 -95.7081 266° West 227 261 3,100  Climbing Houston Center
10:36AM 30.0544 -95.7450 214° Southwest 251 289 3,000  Descending Houston Center
10:37AM 30.0078 -95.7144 150° Southeast 227 261 3,100  Climbing Houston Center
10:38AM 30.0033 -95.6425 94° East 188 216 3,100  Level Houston Center
10:39AM 30.0047 -95.5869 88° East 181 208 3,100 -120 Level Houston Center
10:40AM 30.0053 -95.5217 89° East 191 220 2,900 -660 Descending Houston Center
10:41AM 30.0061 -95.4611 89° East 192 221 1,800 -960 Descending Houston Center
10:42AM 30.0075 -95.4081 88° East 142 163 1,000 -780 Descending Houston Center
10:43AM 30.0075 -95.3622 90° East 131 151 300 -720 Descending Houston Center